createdAt,value
2022-08-20T00:08:13.678Z,16.80
2022-08-20T00:18:17.330Z,16.60
2022-08-20T00:28:19.913Z,16.50
2022-08-20T00:38:24.002Z,16.40
2022-08-20T00:48:28.921Z,16.30
2022-08-20T00:58:32.830Z,16.20
2022-08-20T01:08:34.912Z,16.00
2022-08-20T01:18:38.958Z,15.90
2022-08-20T01:28:45.438Z,15.80
2022-08-20T01:38:54.276Z,15.70
2022-08-20T01:48:59.794Z,15.60
2022-08-20T01:59:05.464Z,15.50
2022-08-20T02:09:15.596Z,15.40
2022-08-20T02:19:21.245Z,15.20
2022-08-20T02:29:24.918Z,15.10
2022-08-20T02:39:27.316Z,14.90
2022-08-20T02:49:30.802Z,14.80
2022-08-20T02:59:32.821Z,14.70
2022-08-20T03:09:36.601Z,14.50
2022-08-20T03:19:38.565Z,14.40
2022-08-20T03:29:41.887Z,14.30
2022-08-20T03:39:44.015Z,14.20
2022-08-20T03:49:47.744Z,14.20
2022-08-20T03:59:54.650Z,14.10
2022-08-20T04:10:07.212Z,14.00
2022-08-20T04:20:12.561Z,13.90
2022-08-20T04:30:17.985Z,13.80
2022-08-20T04:40:20.099Z,13.70
2022-08-20T04:50:24.168Z,13.60
2022-08-20T05:00:26.302Z,13.50
2022-08-20T05:10:29.696Z,13.40
2022-08-20T05:20:33.371Z,13.40
2022-08-20T05:30:38.545Z,13.40
2022-08-20T05:40:43.735Z,13.50
2022-08-20T05:50:48.723Z,13.60
2022-08-20T06:00:51.981Z,13.70
2022-08-20T06:10:55.916Z,13.80
2022-08-20T06:20:57.884Z,14.00
2022-08-20T06:31:01.247Z,14.40
2022-08-20T06:41:03.318Z,14.80
2022-08-20T06:51:08.174Z,15.40
2022-08-20T07:01:12.381Z,15.90
2022-08-20T07:11:15.772Z,16.30
2022-08-20T07:21:17.831Z,16.60
2022-08-20T07:31:21.185Z,16.90
2022-08-20T07:41:23.237Z,17.20
2022-08-20T07:51:26.972Z,17.50
2022-08-20T08:01:31.369Z,17.90
2022-08-20T08:11:39.158Z,18.30
2022-08-20T08:21:41.647Z,18.50
2022-08-20T08:31:45.025Z,19.00
2022-08-20T08:41:48.928Z,19.70
2022-08-20T08:51:56.689Z,22.70
2022-08-20T09:02:00.473Z,24.60
2022-08-20T09:12:07.149Z,26.10
2022-08-20T09:22:10.573Z,27.20
2022-08-20T09:32:18.629Z,26.20
2022-08-20T09:42:24.790Z,24.90
2022-08-20T09:52:31.746Z,26.00
2022-08-20T10:02:33.905Z,25.10
2022-08-20T10:12:37.330Z,25.30
2022-08-20T10:22:39.294Z,24.70
2022-08-20T10:32:42.809Z,25.50
2022-08-20T10:42:45.152Z,25.30
2022-08-20T10:52:48.563Z,24.40
2022-08-20T11:02:50.568Z,23.80
2022-08-20T11:12:54.721Z,24.00
2022-08-20T11:22:56.781Z,25.60
2022-08-20T11:33:00.902Z,25.50
2022-08-20T11:43:18.705Z,24.80
2022-08-20T11:53:22.889Z,24.10
2022-08-20T12:03:24.944Z,24.10
2022-08-20T12:13:34.701Z,24.30
2022-08-20T12:23:50.615Z,24.50
2022-08-20T12:33:53.931Z,24.70
2022-08-20T12:43:55.885Z,24.60
2022-08-20T12:53:59.236Z,24.30
2022-08-20T13:04:01.164Z,24.10
2022-08-20T13:14:05.090Z,23.90
2022-08-20T13:24:07.574Z,24.20
2022-08-20T13:34:11.228Z,24.30
2022-08-20T13:44:13.398Z,24.60
2022-08-20T13:54:16.804Z,24.10
2022-08-20T14:04:56.615Z,24.20
2022-08-20T14:15:00.027Z,24.20
2022-08-20T14:25:02.238Z,24.40
2022-08-20T14:35:06.868Z,24.80
2022-08-20T14:45:11.690Z,24.70
2022-08-20T14:55:16.872Z,25.90
2022-08-20T15:05:19.305Z,26.20
2022-08-20T15:15:24.063Z,26.20
2022-08-20T15:25:28.281Z,25.80
2022-08-20T15:35:39.722Z,26.30
2022-08-20T15:45:41.695Z,26.40
2022-08-20T15:55:57.562Z,26.50
2022-08-20T16:06:06.465Z,26.40
2022-08-20T16:16:22.147Z,26.20
2022-08-20T16:26:43.192Z,25.90
2022-08-20T16:37:03.421Z,25.80
2022-08-20T16:47:15.100Z,25.00
2022-08-20T16:57:31.634Z,24.60
2022-08-20T17:07:46.136Z,24.20
2022-08-20T17:17:49.864Z,24.10
2022-08-20T17:27:51.885Z,24.40
2022-08-20T17:38:04.540Z,23.80
2022-08-20T17:48:17.095Z,23.50
2022-08-20T17:58:41.890Z,22.90
2022-08-20T18:09:12.936Z,22.60
2022-08-20T18:19:50.925Z,22.30
2022-08-20T18:30:11.532Z,21.80
2022-08-20T18:40:26.544Z,21.60
2022-08-20T18:50:42.893Z,21.40
2022-08-20T19:00:48.821Z,21.10
2022-08-20T19:10:58.892Z,20.90
2022-08-20T19:21:03.886Z,20.60
2022-08-20T19:31:11.142Z,20.40
2022-08-20T19:41:26.726Z,20.10
2022-08-20T19:51:45.817Z,20.00
2022-08-20T20:01:57.134Z,19.80
2022-08-20T20:12:09.621Z,19.60
2022-08-20T20:22:29.010Z,19.40
2022-08-20T20:32:31.781Z,19.10
2022-08-20T20:43:02.212Z,18.90
2022-08-20T20:53:04.269Z,18.80
2022-08-20T21:03:07.582Z,18.70
2022-08-20T21:13:11.308Z,18.50
2022-08-20T21:23:14.718Z,18.40
2022-08-20T21:33:16.745Z,18.20
2022-08-20T21:43:20.254Z,18.10
2022-08-20T21:53:22.797Z,17.90
2022-08-20T22:03:27.968Z,17.80
2022-08-20T22:13:31.895Z,17.70
2022-08-20T22:23:35.396Z,17.60
2022-08-20T22:33:38.676Z,17.50
2022-08-20T22:43:43.475Z,17.40
2022-08-20T22:53:59.945Z,17.30
2022-08-20T23:04:05.555Z,17.20
2022-08-20T23:14:07.601Z,17.00
2022-08-20T23:24:14.325Z,17.00
2022-08-20T23:34:16.827Z,16.90
2022-08-20T23:44:26.226Z,16.80
2022-08-20T23:54:30.342Z,16.70
